Time;durP1;ratioP1;P1;durP2;ratioP2;P2;SDS_P1;SDS_P2;PMS_P1;PMS_P2;Temp;Humidity;BMP_temperature;BMP_pressure;BME280_temperature;BME280_humidity;BME280_pressure;Samples;Min_cycle;Max_cycle;Signal;HPM_P1;HPM_P2
2023/03/24 00:02:27;;;;;;;3.10;1.50;;;11.00;99.90;;;;;;15391483;23;20028;-79
2023/03/24 00:08:35;;;;;;;6.65;2.10;;;11.00;99.90;;;;;;15421086;23;20095;-80
2023/03/24 00:14:37;;;;;;;5.20;1.70;;;10.80;99.90;;;;;;15387472;23;20056;-79
2023/03/24 00:20:41;;;;;;;6.88;1.80;;;10.90;99.90;;;;;;15421205;23;20033;-80
2023/03/24 00:26:43;;;;;;;4.03;1.80;;;10.70;99.90;;;;;;15421122;23;20069;-80
2023/03/24 00:32:48;;;;;;;8.35;2.00;;;10.80;99.90;;;;;;15416861;23;20017;-79
2023/03/24 00:38:52;;;;;;;8.32;1.90;;;10.80;99.90;;;;;;15425046;23;20060;-80
2023/03/24 00:44:53;;;;;;;6.00;1.60;;;10.80;99.90;;;;;;15425329;23;20468;-79
2023/03/24 00:50:56;;;;;;;4.32;1.70;;;10.80;99.90;;;;;;15400611;23;20102;-79
2023/03/24 00:57:01;;;;;;;3.33;1.80;;;10.80;99.90;;;;;;15392215;23;20016;-80
2023/03/24 01:03:03;;;;;;;5.63;1.98;;;10.70;99.90;;;;;;15400477;23;20042;-80
2023/03/24 01:09:06;;;;;;;6.35;1.70;;;10.70;99.90;;;;;;15397719;23;20024;-79
2023/03/24 01:15:13;;;;;;;5.55;2.35;;;10.70;99.90;;;;;;15421642;23;20052;-80
2023/03/24 01:21:17;;;;;;;5.82;1.85;;;10.60;99.90;;;;;;15399717;23;20021;-79
2023/03/24 01:27:19;;;;;;;3.88;1.95;;;10.70;99.90;;;;;;15394301;23;20016;-80
2023/03/24 01:33:22;;;;;;;5.45;1.60;;;10.60;99.90;;;;;;15395878;23;20059;-79
2023/03/24 01:39:24;;;;;;;4.45;1.70;;;10.70;99.90;;;;;;15399744;23;20036;-81
2023/03/24 01:45:38;;;;;;;4.32;1.80;;;10.90;99.90;;;;;;15418162;23;20024;-80
2023/03/24 01:51:45;;;;;;;2.92;1.52;;;11.10;99.90;;;;;;15401120;23;20020;-79
2023/03/24 01:57:51;;;;;;;3.03;1.30;;;11.00;99.90;;;;;;15401950;23;20459;-79
2023/03/24 02:03:53;;;;;;;4.25;1.92;;;11.00;99.90;;;;;;15396393;23;20024;-79
2023/03/24 02:09:56;;;;;;;4.05;1.50;;;11.00;99.90;;;;;;15391747;23;20491;-79
2023/03/24 02:16:22;;;;;;;2.67;1.60;;;11.00;99.90;;;;;;15423247;23;20107;-80
2023/03/24 02:22:36;;;;;;;4.72;1.60;;;10.90;99.90;;;;;;15401824;23;20028;-80
2023/03/24 02:28:40;;;;;;;5.82;1.70;;;10.90;99.90;;;;;;15393746;23;20024;-79
2023/03/24 02:35:14;;;;;;;4.20;1.80;;;11.00;99.90;;;;;;15427823;23;20422;-81
2023/03/24 02:41:29;;;;;;;3.08;1.60;;;10.90;99.90;;;;;;15420620;23;20522;-81
2023/03/24 02:48:16;;;;;;;3.45;1.92;;;10.90;99.90;;;;;;15386428;23;20028;-81
2023/03/24 02:54:23;;;;;;;5.03;2.22;;;10.90;99.90;;;;;;15383799;23;20024;-80
2023/03/24 03:00:47;;;;;;;2.63;1.83;;;11.00;99.90;;;;;;15403802;23;20109;-79
2023/03/24 03:06:55;;;;;;;2.95;1.90;;;11.00;99.90;;;;;;15387789;23;20020;-80
2023/03/24 03:13:00;;;;;;;4.40;2.05;;;11.00;99.90;;;;;;15404160;23;20102;-80
2023/03/24 03:19:09;;;;;;;5.45;2.13;;;11.10;99.90;;;;;;15407419;23;20155;-79
2023/03/24 03:25:14;;;;;;;5.13;1.92;;;11.10;99.90;;;;;;15411191;23;20032;-80
2023/03/24 03:31:28;;;;;;;4.88;2.15;;;11.20;99.90;;;;;;15429986;23;20021;-80
2023/03/24 03:37:42;;;;;;;4.43;2.10;;;11.20;99.90;;;;;;15430325;23;20162;-79
2023/03/24 03:43:48;;;;;;;4.35;2.10;;;11.30;99.90;;;;;;15391922;23;20454;-79
2023/03/24 03:49:50;;;;;;;5.32;2.33;;;11.30;99.90;;;;;;15397620;23;20021;-80
2023/03/24 03:55:52;;;;;;;4.28;2.67;;;11.20;99.90;;;;;;15403720;23;20395;-80
2023/03/24 04:01:56;;;;;;;3.20;2.20;;;11.20;99.90;;;;;;15397631;23;20078;-80
2023/03/24 04:08:36;;;;;;;3.87;2.43;;;11.10;99.90;;;;;;15393448;23;20099;-79
2023/03/24 04:14:44;;;;;;;3.67;2.40;;;11.20;99.90;;;;;;15367892;23;20036;-79
2023/03/24 04:21:03;;;;;;;5.15;2.70;;;11.20;99.90;;;;;;15426564;23;20024;-80
2023/03/24 04:27:25;;;;;;;3.88;2.33;;;11.30;99.90;;;;;;15398567;23;20147;-80
2023/03/24 04:33:47;;;;;;;4.35;2.42;;;11.30;99.90;;;;;;15378258;23;20626;-81
2023/03/24 04:39:52;;;;;;;5.03;2.30;;;11.40;99.90;;;;;;15402007;23;20025;-80
2023/03/24 04:45:56;;;;;;;4.85;2.53;;;11.40;99.90;;;;;;15424756;23;20020;-79
2023/03/24 04:51:59;;;;;;;4.20;2.40;;;11.60;99.90;;;;;;15432951;23;20095;-78
2023/03/24 04:58:01;;;;;;;5.90;2.80;;;11.70;99.90;;;;;;15423515;23;20403;-79
2023/03/24 05:04:04;;;;;;;4.85;2.58;;;11.60;99.90;;;;;;15408387;23;20035;-79
2023/03/24 05:10:06;;;;;;;4.05;2.63;;;11.70;99.90;;;;;;15414689;23;20016;-79
2023/03/24 05:16:08;;;;;;;4.82;2.60;;;11.70;99.90;;;;;;15429714;23;20024;-79
2023/03/24 05:22:10;;;;;;;4.97;2.40;;;11.70;99.90;;;;;;15464586;22;20065;-80
2023/03/24 05:28:13;;;;;;;5.13;2.30;;;11.80;99.90;;;;;;15464286;22;20017;-79
2023/03/24 05:34:14;;;;;;;5.15;2.22;;;11.80;99.90;;;;;;15426825;23;20031;-79
2023/03/24 05:40:16;;;;;;;5.22;2.53;;;11.90;99.90;;;;;;15395084;23;20090;-80
2023/03/24 05:46:18;;;;;;;4.88;2.60;;;11.90;99.90;;;;;;15402919;23;20017;-79
2023/03/24 05:52:21;;;;;;;7.82;3.15;;;11.80;99.90;;;;;;15426915;23;20016;-80
2023/03/24 05:58:23;;;;;;;3.38;2.05;;;11.80;99.90;;;;;;15396612;23;20024;-79
2023/03/24 06:04:29;;;;;;;3.30;1.63;;;11.40;99.90;;;;;;15415797;23;20020;-80
2023/03/24 06:10:31;;;;;;;2.58;1.30;;;11.30;99.90;;;;;;15390345;23;20478;-80
2023/03/24 06:16:37;;;;;;;2.97;1.30;;;11.10;99.90;;;;;;15420738;23;20036;-79
2023/03/24 06:22:39;;;;;;;2.65;1.20;;;11.20;99.90;;;;;;15391507;23;20090;-79
2023/03/24 06:28:42;;;;;;;3.03;1.45;;;11.20;99.90;;;;;;15398094;23;20024;-79
2023/03/24 06:34:44;;;;;;;2.58;1.60;;;11.40;99.90;;;;;;15383688;23;20096;-79
2023/03/24 06:40:46;;;;;;;2.40;1.50;;;11.50;99.90;;;;;;15403060;23;20051;-78
2023/03/24 06:46:48;;;;;;;2.00;0.90;;;11.50;99.90;;;;;;15422116;23;20100;-79
2023/03/24 06:52:49;;;;;;;2.63;0.85;;;11.50;99.90;;;;;;15400962;23;20019;-78
2023/03/24 06:58:51;;;;;;;2.00;0.55;;;11.40;99.90;;;;;;15402047;23;20094;-78
2023/03/24 07:04:54;;;;;;;0.88;0.50;;;11.20;99.90;;;;;;15398421;23;20024;-78
2023/03/24 07:10:56;;;;;;;3.15;0.80;;;11.20;99.90;;;;;;15391651;23;20016;-78
2023/03/24 07:16:58;;;;;;;3.10;0.90;;;11.20;99.90;;;;;;15397612;23;20060;-77
2023/03/24 07:23:00;;;;;;;2.83;0.90;;;11.10;99.90;;;;;;15422172;23;20107;-78
2023/03/24 07:29:02;;;;;;;4.60;1.15;;;11.00;99.90;;;;;;15396332;23;20406;-78
2023/03/24 07:35:10;;;;;;;3.30;1.10;;;10.90;99.90;;;;;;15401343;23;20021;-78
2023/03/24 07:41:12;;;;;;;4.78;1.00;;;11.00;99.90;;;;;;15423326;23;20031;-78
2023/03/24 07:47:14;;;;;;;5.43;1.30;;;11.10;99.90;;;;;;15425892;23;20454;-77
2023/03/24 07:53:18;;;;;;;6.47;1.50;;;11.20;99.90;;;;;;15400798;23;20013;-78
2023/03/24 07:59:20;;;;;;;9.73;1.38;;;11.10;99.90;;;;;;15420503;23;20020;-77
2023/03/24 08:05:23;;;;;;;6.90;1.40;;;11.10;99.90;;;;;;15401835;23;20020;-78
2023/03/24 08:11:25;;;;;;;9.25;1.83;;;11.00;99.90;;;;;;15396825;23;20038;-77
2023/03/24 08:17:27;;;;;;;15.02;1.95;;;11.40;99.90;;;;;;15397971;23;20312;-77
2023/03/24 08:23:30;;;;;;;6.53;2.05;;;11.40;99.90;;;;;;15425568;23;20078;-78
2023/03/24 08:29:33;;;;;;;5.40;1.90;;;11.30;99.90;;;;;;15391184;23;20017;-78
2023/03/24 08:35:38;;;;;;;7.95;2.00;;;11.40;99.90;;;;;;15392314;23;20029;-78
2023/03/24 08:41:40;;;;;;;7.22;2.10;;;11.70;99.90;;;;;;15402664;23;20032;-79
2023/03/24 08:47:42;;;;;;;10.13;2.20;;;11.70;99.90;;;;;;15414093;23;20151;-78
2023/03/24 08:53:44;;;;;;;11.35;2.30;;;11.60;99.90;;;;;;15397524;23;20099;-79
2023/03/24 08:59:46;;;;;;;9.40;2.00;;;11.70;99.90;;;;;;15420438;23;20060;-78
2023/03/24 09:05:58;;;;;;;16.00;2.50;;;11.90;99.90;;;;;;15392622;23;20024;-79
2023/03/24 09:12:01;;;;;;;14.18;2.75;;;12.30;99.90;;;;;;15414777;23;20095;-79
2023/03/24 09:18:03;;;;;;;9.77;2.35;;;12.80;99.90;;;;;;15425569;23;20538;-79
2023/03/24 09:24:06;;;;;;;7.70;2.10;;;12.90;99.90;;;;;;15423467;23;20016;-79
2023/03/24 09:30:09;;;;;;;9.30;2.25;;;12.60;99.90;;;;;;15396196;23;20024;-78
2023/03/24 09:36:12;;;;;;;9.05;2.08;;;12.80;99.90;;;;;;15387121;23;20357;-78
2023/03/24 09:42:23;;;;;;;8.13;1.90;;;13.20;99.90;;;;;;15397280;23;20016;-78
2023/03/24 09:48:52;;;;;;;7.75;2.20;;;13.50;99.90;;;;;;15398549;23;20095;-79
2023/03/24 09:54:57;;;;;;;6.35;1.90;;;13.50;99.90;;;;;;15409856;23;20483;-79
2023/03/24 10:01:00;;;;;;;5.43;1.63;;;13.30;99.90;;;;;;15394043;23;20052;-78
2023/03/24 10:07:41;;;;;;;6.57;1.60;;;13.10;99.90;;;;;;15388382;23;20012;-78
2023/03/24 10:13:53;;;;;;;6.88;1.52;;;13.20;99.90;;;;;;15390769;23;20034;-78
2023/03/24 10:20:06;;;;;;;6.57;1.60;;;13.10;99.90;;;;;;15430781;22;20059;-78
2023/03/24 10:26:52;;;;;;;9.85;1.52;;;13.00;99.90;;;;;;15428673;23;20060;-78
2023/03/24 10:32:54;;;;;;;7.75;1.52;;;13.40;99.90;;;;;;15402797;23;20110;-78
2023/03/24 10:38:56;;;;;;;8.95;1.52;;;13.70;99.90;;;;;;15404571;23;20052;-78
2023/03/24 10:45:13;;;;;;;7.28;1.60;;;13.20;99.90;;;;;;15400369;23;20410;-78
2023/03/24 10:51:20;;;;;;;5.25;1.27;;;13.00;99.90;;;;;;15425283;23;20032;-78
2023/03/24 10:57:23;;;;;;;8.98;1.52;;;12.90;99.90;;;;;;15404693;23;20028;-78
2023/03/24 11:03:31;;;;;;;8.30;1.58;;;12.90;99.90;;;;;;15402406;23;20082;-78
2023/03/24 11:09:45;;;;;;;5.97;1.08;;;13.10;99.90;;;;;;15419123;23;20025;-78
2023/03/24 11:16:04;;;;;;;5.57;1.60;;;13.00;99.90;;;;;;15397994;23;20086;-78
2023/03/24 11:22:09;;;;;;;8.85;1.38;;;12.90;99.90;;;;;;15402808;23;20458;-78
2023/03/24 11:28:26;;;;;;;5.93;1.40;;;12.90;99.90;;;;;;15402383;23;20033;-78
2023/03/24 11:34:37;;;;;;;6.90;1.20;;;12.90;99.90;;;;;;15413538;23;20414;-78
2023/03/24 11:40:53;;;;;;;4.78;1.25;;;13.00;99.90;;;;;;15400978;23;20502;-78
2023/03/24 11:47:00;;;;;;;5.63;1.20;;;13.20;99.90;;;;;;15401604;23;20055;-78
2023/03/24 11:53:22;;;;;;;9.32;1.50;;;13.80;99.90;;;;;;15398907;23;20091;-78
2023/03/24 11:59:51;;;;;;;5.43;1.40;;;14.30;99.90;;;;;;15391819;23;20028;-78
2023/03/24 12:06:15;;;;;;;6.80;1.55;;;14.00;99.90;;;;;;15419360;23;20025;-78
2023/03/24 12:12:36;;;;;;;8.48;1.23;;;14.10;99.90;;;;;;15388831;23;20020;-78
2023/03/24 12:18:47;;;;;;;10.20;1.38;;;13.90;99.90;;;;;;15429249;23;20025;-78
2023/03/24 12:25:11;;;;;;;7.65;1.48;;;13.50;99.90;;;;;;15478867;23;20052;-77
2023/03/24 12:31:40;;;;;;;4.07;1.10;;;13.80;99.90;;;;;;15494731;23;20486;-77
2023/03/24 12:38:01;;;;;;;4.75;1.02;;;13.60;99.90;;;;;;15499680;22;20042;-78
2023/03/24 12:44:21;;;;;;;3.78;0.95;;;13.40;99.90;;;;;;15497302;22;20048;-78
2023/03/24 12:50:30;;;;;;;5.00;1.10;;;13.30;99.90;;;;;;15492534;23;20517;-79
2023/03/24 12:56:44;;;;;;;5.82;1.20;;;14.00;99.90;;;;;;15504052;23;20541;-79
2023/03/24 13:02:57;;;;;;;7.90;1.20;;;13.80;99.90;;;;;;15496237;23;20047;-78
2023/03/24 13:09:12;;;;;;;7.57;1.40;;;13.90;99.90;;;;;;15496372;23;20473;-78
2023/03/24 13:15:38;;;;;;;5.40;1.35;;;13.70;99.90;;;;;;15496058;22;20028;-78
2023/03/24 13:21:42;;;;;;;5.47;1.08;;;13.70;99.90;;;;;;15472363;22;20103;-77
2023/03/24 13:27:48;;;;;;;7.47;1.27;;;13.70;99.90;;;;;;15424882;23;20427;-78
2023/03/24 13:33:52;;;;;;;5.63;1.30;;;13.40;99.90;;;;;;15396545;23;20039;-78
2023/03/24 13:40:00;;;;;;;6.15;1.30;;;13.60;99.90;;;;;;15401365;23;20024;-78
2023/03/24 13:46:12;;;;;;;8.20;1.60;;;13.40;99.90;;;;;;15392151;23;20147;-78
2023/03/24 13:52:27;;;;;;;5.68;1.20;;;13.30;99.90;;;;;;15427725;23;20465;-78
2023/03/24 13:58:57;;;;;;;5.47;1.02;;;13.00;99.90;;;;;;15399283;23;20099;-80
2023/03/24 14:05:10;;;;;;;4.50;0.90;;;12.10;99.90;;;;;;15399008;23;20027;-80
2023/03/24 14:11:30;;;;;;;7.20;1.38;;;11.80;99.90;;;;;;15387637;23;20355;-80
2023/03/24 14:17:32;;;;;;;6.05;1.20;;;11.70;99.90;;;;;;15395833;23;20556;-79
2023/03/24 14:23:39;;;;;;;8.68;1.95;;;11.80;99.90;;;;;;15415220;22;20320;-80
2023/03/24 14:29:49;;;;;;;6.75;1.40;;;12.20;99.90;;;;;;15493756;22;20450;-79
2023/03/24 14:36:00;;;;;;;4.03;1.20;;;12.40;99.90;;;;;;15493455;22;20066;-79
2023/03/24 14:42:31;;;;;;;6.05;1.50;;;12.30;99.90;;;;;;15496472;23;20020;-79
2023/03/24 14:48:39;;;;;;;6.70;2.10;;;12.50;99.90;;;;;;15478652;23;20478;-79
2023/03/24 14:54:52;;;;;;;7.55;1.60;;;12.80;99.90;;;;;;15494313;22;20020;-79
2023/03/24 15:00:58;;;;;;;5.13;1.40;;;12.90;99.90;;;;;;15501422;23;20035;-79
2023/03/24 15:07:04;;;;;;;5.82;1.25;;;12.70;99.90;;;;;;15528133;23;20020;-79
2023/03/24 15:13:25;;;;;;;6.75;1.20;;;12.60;99.90;;;;;;15488989;22;20024;-78
2023/03/24 15:19:29;;;;;;;4.80;1.50;;;12.60;99.90;;;;;;15494417;22;20028;-79
2023/03/24 15:25:32;;;;;;;8.40;1.50;;;12.50;99.90;;;;;;15430350;22;20024;-80
2023/03/24 15:31:35;;;;;;;6.57;1.40;;;12.50;99.90;;;;;;15401152;23;20016;-78
2023/03/24 15:37:46;;;;;;;3.53;1.20;;;12.00;99.90;;;;;;15408189;23;20020;-80
2023/03/24 15:43:51;;;;;;;7.47;1.40;;;9.30;99.90;;;;;;15400510;23;20120;-80
2023/03/24 15:49:56;;;;;;;2.40;0.70;;;9.00;99.90;;;;;;15402656;23;20020;-80
2023/03/24 15:56:10;;;;;;;4.18;0.80;;;9.10;99.90;;;;;;15400468;23;20024;-79
2023/03/24 16:02:40;;;;;;;2.67;0.80;;;9.20;99.90;;;;;;15399831;23;20447;-80
2023/03/24 16:08:45;;;;;;;4.82;0.80;;;9.20;99.90;;;;;;15411636;23;20268;-79
2023/03/24 16:14:47;;;;;;;4.50;0.60;;;9.50;99.90;;;;;;15420731;23;20024;-79
2023/03/24 16:20:50;;;;;;;1.58;0.60;;;9.90;99.90;;;;;;15400493;23;20252;-79
2023/03/24 16:26:52;;;;;;;1.55;0.52;;;9.90;99.90;;;;;;15428126;23;20320;-79
2023/03/24 16:32:54;;;;;;;2.00;0.68;;;10.00;99.90;;;;;;15397136;23;20056;-79
2023/03/24 16:38:58;;;;;;;1.35;0.60;;;10.20;99.90;;;;;;15398443;23;20028;-79
2023/03/24 16:45:00;;;;;;;1.53;0.73;;;10.10;99.90;;;;;;15393167;23;20044;-79
2023/03/24 16:51:02;;;;;;;3.65;0.70;;;9.90;99.90;;;;;;15397863;23;20295;-79
2023/03/24 16:57:04;;;;;;;2.30;0.60;;;9.80;99.90;;;;;;15390064;23;20082;-79
2023/03/24 17:03:06;;;;;;;1.95;0.70;;;9.70;99.90;;;;;;15394356;23;20023;-78
2023/03/24 17:09:11;;;;;;;4.88;0.77;;;9.60;99.90;;;;;;15392399;23;20537;-80
2023/03/24 17:15:28;;;;;;;3.40;0.70;;;9.60;99.90;;;;;;15417115;23;20020;-79
2023/03/24 17:21:36;;;;;;;1.42;0.60;;;9.60;99.90;;;;;;15421392;23;20052;-79
2023/03/24 17:27:38;;;;;;;1.70;0.60;;;9.60;99.90;;;;;;15397050;23;20027;-77
2023/03/24 17:33:40;;;;;;;1.70;0.60;;;9.50;99.90;;;;;;15420633;23;20021;-78
2023/03/24 17:39:42;;;;;;;1.77;0.80;;;9.50;99.90;;;;;;15422725;23;20021;-79
2023/03/24 17:45:45;;;;;;;3.50;1.00;;;9.40;99.90;;;;;;15393696;23;20417;-79
2023/03/24 17:51:47;;;;;;;2.05;0.80;;;9.40;99.90;;;;;;15388979;23;20023;-79
2023/03/24 17:57:49;;;;;;;3.63;1.00;;;9.30;99.90;;;;;;15397079;23;20368;-79
2023/03/24 18:03:51;;;;;;;2.35;0.85;;;9.20;99.90;;;;;;15392031;23;20100;-79
2023/03/24 18:09:53;;;;;;;7.43;1.30;;;9.20;99.90;;;;;;15389805;23;20046;-78
2023/03/24 18:15:55;;;;;;;6.00;1.30;;;9.20;99.90;;;;;;15423715;23;20131;-79
2023/03/24 18:22:03;;;;;;;3.63;1.38;;;9.20;99.90;;;;;;15398657;23;20020;-79
2023/03/24 18:28:05;;;;;;;5.35;1.35;;;9.20;99.90;;;;;;15396075;23;20129;-79
2023/03/24 18:34:07;;;;;;;5.30;1.50;;;9.10;99.90;;;;;;15404368;23;20027;-79
2023/03/24 18:40:10;;;;;;;5.05;1.42;;;9.10;99.90;;;;;;15403032;23;20493;-78
2023/03/24 18:46:12;;;;;;;5.72;1.80;;;9.00;99.90;;;;;;15426377;23;20100;-79
2023/03/24 18:52:16;;;;;;;7.25;1.85;;;8.90;99.90;;;;;;15428469;23;20102;-79
2023/03/24 18:58:18;;;;;;;4.68;1.40;;;8.90;99.90;;;;;;15430956;23;20024;-79
2023/03/24 19:04:20;;;;;;;5.85;1.83;;;8.90;99.90;;;;;;15397431;23;20082;-79
2023/03/24 19:10:22;;;;;;;5.63;1.55;;;9.00;99.90;;;;;;15398535;23;20126;-79
2023/03/24 19:16:25;;;;;;;5.68;1.70;;;9.00;99.90;;;;;;15404481;23;20111;-79
2023/03/24 19:22:27;;;;;;;5.15;1.55;;;9.00;99.90;;;;;;15422195;23;20028;-79
2023/03/24 19:28:31;;;;;;;3.65;1.40;;;9.00;99.90;;;;;;15421647;23;20087;-79
2023/03/24 19:34:33;;;;;;;7.13;1.38;;;9.00;99.90;;;;;;15424202;23;20467;-79
2023/03/24 19:40:34;;;;;;;2.95;1.27;;;9.00;99.90;;;;;;15424165;23;20059;-79
2023/03/24 19:46:36;;;;;;;3.10;0.82;;;8.90;99.90;;;;;;15427443;23;20451;-78
2023/03/24 19:52:41;;;;;;;2.53;0.98;;;8.90;99.90;;;;;;15428877;23;20107;-79
2023/03/24 19:58:43;;;;;;;3.20;0.73;;;8.90;99.90;;;;;;15425491;23;20103;-78
2023/03/24 20:04:45;;;;;;;2.83;0.95;;;9.00;99.90;;;;;;15403571;23;20087;-78
2023/03/24 20:10:47;;;;;;;3.35;1.00;;;8.80;99.90;;;;;;15394677;23;20024;-78
2023/03/24 20:16:49;;;;;;;3.20;1.17;;;8.80;99.90;;;;;;15399297;23;20051;-78
2023/03/24 20:22:51;;;;;;;4.45;1.17;;;8.60;99.90;;;;;;15400040;23;20079;-78
2023/03/24 20:28:53;;;;;;;4.57;1.27;;;8.60;99.90;;;;;;15387283;23;20506;-78
2023/03/24 20:34:55;;;;;;;3.20;1.00;;;8.50;99.90;;;;;;15391792;23;20033;-78
2023/03/24 20:40:57;;;;;;;3.83;1.10;;;8.50;99.90;;;;;;15400962;23;20044;-78
2023/03/24 20:47:00;;;;;;;3.72;1.27;;;8.50;99.90;;;;;;15398556;23;20019;-78
2023/03/24 20:53:01;;;;;;;4.35;1.15;;;8.50;99.90;;;;;;15427466;23;20462;-79
2023/03/24 20:59:05;;;;;;;2.40;1.10;;;8.50;99.90;;;;;;15392208;23;20020;-79
2023/03/24 21:05:08;;;;;;;2.93;0.90;;;8.60;99.90;;;;;;15425771;23;20028;-78
2023/03/24 21:11:10;;;;;;;5.63;1.10;;;8.60;99.90;;;;;;15430399;23;20276;-79
2023/03/24 21:17:12;;;;;;;4.57;1.02;;;8.50;99.90;;;;;;15431602;23;20027;-79
2023/03/24 21:23:17;;;;;;;3.22;1.00;;;8.50;99.90;;;;;;15412120;23;20020;-80
2023/03/24 21:29:21;;;;;;;;;;;8.40;99.90;;;;;;15437417;23;20001;-79
2023/03/24 21:35:23;;;;;;;2.33;1.00;;;8.40;99.90;;;;;;15462509;23;19920;-80
2023/03/24 21:41:27;;;;;;;2.97;0.95;;;8.50;99.90;;;;;;15465060;22;20039;-80
2023/03/24 21:47:29;;;;;;;3.10;1.07;;;8.50;99.90;;;;;;15406638;23;20313;-79
2023/03/24 21:53:33;;;;;;;5.80;1.15;;;8.50;99.90;;;;;;15424365;23;20252;-79
2023/03/24 21:59:36;;;;;;;3.20;1.02;;;8.60;99.90;;;;;;15404136;23;20123;-79
2023/03/24 22:05:39;;;;;;;4.90;1.10;;;8.60;99.90;;;;;;15393457;23;20548;-80
2023/03/24 22:11:41;;;;;;;5.40;1.20;;;8.70;99.90;;;;;;15427843;23;20099;-79
2023/03/24 22:17:43;;;;;;;5.15;1.27;;;8.70;99.90;;;;;;15430923;23;20016;-79
2023/03/24 22:23:45;;;;;;;3.92;1.17;;;8.80;99.90;;;;;;15451556;22;20028;-79
2023/03/24 22:29:47;;;;;;;3.58;1.15;;;8.80;99.90;;;;;;15504947;23;20469;-78
2023/03/24 22:35:54;;;;;;;4.55;1.10;;;8.80;99.90;;;;;;15505121;23;20110;-78
2023/03/24 22:41:56;;;;;;;3.45;1.02;;;8.80;99.90;;;;;;15500915;23;20028;-79
2023/03/24 22:47:58;;;;;;;2.75;0.73;;;8.80;99.90;;;;;;15494995;23;20016;-79
2023/03/24 22:54:00;;;;;;;3.35;1.00;;;8.90;99.90;;;;;;15501207;22;20094;-79
2023/03/24 23:00:05;;;;;;;3.45;0.93;;;8.80;99.90;;;;;;15501446;23;20028;-80
2023/03/24 23:06:08;;;;;;;2.90;1.10;;;8.80;99.90;;;;;;15500551;23;20016;-79
2023/03/24 23:12:12;;;;;;;4.03;1.13;;;8.70;99.90;;;;;;15497759;23;20034;-78
2023/03/24 23:18:15;;;;;;;4.53;1.07;;;8.80;99.90;;;;;;15503287;23;20569;-80
2023/03/24 23:24:17;;;;;;;3.50;0.90;;;8.70;99.90;;;;;;15500977;22;20135;-78
2023/03/24 23:30:20;;;;;;;5.97;1.38;;;8.80;99.90;;;;;;15498839;22;20023;-79
2023/03/24 23:36:24;;;;;;;6.20;1.30;;;8.80;99.90;;;;;;15494122;23;20106;-79
2023/03/24 23:42:28;;;;;;;5.15;1.05;;;8.60;99.90;;;;;;15504451;23;20026;-79
2023/03/24 23:48:30;;;;;;;4.63;1.58;;;8.60;99.90;;;;;;15494390;22;20012;-79
2023/03/24 23:54:32;;;;;;;5.55;0.93;;;8.60;99.90;;;;;;15501556;22;20082;-79
